createdAt,value
2019-01-12T00:00:04.643Z,5.10
2019-01-12T00:01:35.354Z,5.10
2019-01-12T00:02:35.295Z,5.09
2019-01-12T00:04:05.977Z,5.09
2019-01-12T00:05:05.958Z,5.15
2019-01-12T00:06:36.638Z,5.13
2019-01-12T00:07:36.632Z,5.00
2019-01-12T00:08:36.614Z,4.99
2019-01-12T00:09:36.598Z,5.02
2019-01-12T00:10:36.580Z,5.10
2019-01-12T00:11:36.570Z,4.96
2019-01-12T00:12:36.576Z,4.99
2019-01-12T00:13:36.545Z,5.00
2019-01-12T00:14:36.535Z,4.99
2019-01-12T00:15:36.528Z,4.99
2019-01-12T00:16:36.551Z,5.12
2019-01-12T00:17:36.530Z,5.00
2019-01-12T00:18:36.501Z,5.07
2019-01-12T00:19:36.500Z,5.07
2019-01-12T00:20:36.483Z,5.00
2019-01-12T00:21:36.463Z,5.04
2019-01-12T00:22:36.460Z,5.00
2019-01-12T00:23:36.441Z,5.10
2019-01-12T00:24:36.446Z,5.04
2019-01-12T00:25:36.420Z,5.02
2019-01-12T00:26:36.411Z,4.94
2019-01-12T00:27:36.424Z,4.99
2019-01-12T00:28:36.390Z,5.02
2019-01-12T00:29:36.380Z,5.10
2019-01-12T00:30:36.359Z,5.00
2019-01-12T00:31:36.351Z,5.03
2019-01-12T00:32:36.345Z,5.09
2019-01-12T00:33:36.329Z,4.99
2019-01-12T00:34:36.326Z,4.96
2019-01-12T00:35:36.316Z,4.99
2019-01-12T00:36:36.300Z,5.10
2019-01-12T00:37:36.290Z,5.06
2019-01-12T00:38:36.310Z,5.07
2019-01-12T00:39:36.268Z,5.02
2019-01-12T00:40:36.263Z,5.03
2019-01-12T00:41:36.258Z,5.06
2019-01-12T00:42:36.246Z,5.00
2019-01-12T00:43:36.236Z,4.99
2019-01-12T00:44:36.222Z,5.06
2019-01-12T00:45:36.208Z,4.99
2019-01-12T00:46:36.188Z,5.04
2019-01-12T00:47:36.188Z,4.96
2019-01-12T00:48:36.171Z,4.97
2019-01-12T00:49:36.162Z,4.99
2019-01-12T00:50:36.187Z,5.03
2019-01-12T00:51:36.161Z,5.03
2019-01-12T00:52:36.123Z,4.99
2019-01-12T00:53:36.140Z,5.00
2019-01-12T00:54:38.710Z,4.97
2019-01-12T00:55:36.096Z,4.94
2019-01-12T00:56:36.090Z,5.00
2019-01-12T00:57:36.074Z,4.92
2019-01-12T00:58:36.072Z,4.94
2019-01-12T00:59:36.060Z,4.96
2019-01-12T01:00:36.046Z,4.99
2019-01-12T01:01:36.027Z,4.97
2019-01-12T01:02:36.034Z,4.94
2019-01-12T01:03:36.012Z,4.97
2019-01-12T01:04:35.997Z,4.94
2019-01-12T01:05:35.991Z,4.97
2019-01-12T01:06:35.981Z,4.96
2019-01-12T01:07:35.967Z,4.86
2019-01-12T01:08:35.968Z,4.92
2019-01-12T01:09:35.952Z,4.89
2019-01-12T01:10:35.943Z,4.85
2019-01-12T01:11:35.914Z,4.91
2019-01-12T01:12:35.951Z,4.91
2019-01-12T01:13:35.904Z,4.89
2019-01-12T01:14:35.889Z,4.89
2019-01-12T01:15:35.883Z,4.89
2019-01-12T01:16:35.872Z,4.86
2019-01-12T01:17:35.848Z,4.86
2019-01-12T01:18:35.849Z,4.89
2019-01-12T01:19:35.838Z,4.82
2019-01-12T01:20:35.832Z,4.88
2019-01-12T01:21:35.816Z,4.82
2019-01-12T01:22:35.812Z,4.86
2019-01-12T01:23:35.801Z,4.84
2019-01-12T01:24:35.782Z,4.88
2019-01-12T01:25:35.770Z,4.82
2019-01-12T01:26:35.782Z,4.86
2019-01-12T01:27:35.754Z,4.78
2019-01-12T01:28:35.746Z,4.80
2019-01-12T01:29:35.738Z,4.86
2019-01-12T01:30:35.721Z,4.75
2019-01-12T01:31:35.708Z,4.82
2019-01-12T01:32:35.704Z,4.72
2019-01-12T01:33:35.698Z,4.86
2019-01-12T01:34:35.670Z,4.73
2019-01-12T01:35:35.666Z,4.77
2019-01-12T01:36:35.653Z,4.75
2019-01-12T01:37:35.648Z,4.80
2019-01-12T01:38:35.640Z,4.69
2019-01-12T01:39:35.620Z,4.77
2019-01-12T01:40:35.601Z,4.70
2019-01-12T01:41:35.600Z,4.70
2019-01-12T01:42:35.590Z,4.75
2019-01-12T01:43:35.581Z,4.70
2019-01-12T01:44:35.579Z,4.69
2019-01-12T01:45:35.554Z,4.72
2019-01-12T01:46:35.549Z,4.67
2019-01-12T01:47:35.528Z,4.69
2019-01-12T01:48:35.518Z,4.73
2019-01-12T01:49:35.514Z,4.65
2019-01-12T01:50:35.513Z,4.67
2019-01-12T01:51:35.493Z,4.60
2019-01-12T01:52:35.474Z,4.60
2019-01-12T01:53:35.478Z,4.59
2019-01-12T01:54:35.454Z,4.67
2019-01-12T01:55:35.460Z,4.60
2019-01-12T01:56:35.435Z,4.62
2019-01-12T01:57:35.430Z,4.58
2019-01-12T01:58:35.412Z,4.58
2019-01-12T01:59:35.404Z,4.63
2019-01-12T02:00:35.405Z,4.59
2019-01-12T02:01:35.393Z,4.63
2019-01-12T02:02:35.368Z,4.51
2019-01-12T02:03:35.354Z,4.65
2019-01-12T02:04:35.346Z,4.58
2019-01-12T02:05:35.344Z,4.60
2019-01-12T02:06:35.336Z,4.55
2019-01-12T02:07:35.329Z,4.58
2019-01-12T02:08:35.299Z,4.55
2019-01-12T02:09:35.292Z,4.52
2019-01-12T02:10:35.295Z,4.52
2019-01-12T02:11:35.279Z,4.52
2019-01-12T02:12:35.285Z,4.55
2019-01-12T02:13:35.282Z,4.55
2019-01-12T02:14:35.238Z,4.58
2019-01-12T02:15:35.232Z,4.52
2019-01-12T02:16:35.212Z,4.52
2019-01-12T02:17:35.216Z,4.50
2019-01-12T02:18:35.188Z,4.50
2019-01-12T02:19:35.184Z,4.55
2019-01-12T02:20:35.175Z,4.55
2019-01-12T02:21:35.166Z,4.52
2019-01-12T02:22:35.152Z,4.47
2019-01-12T02:23:35.154Z,4.52
2019-01-12T02:24:35.128Z,4.50
2019-01-12T02:25:35.135Z,4.40
2019-01-12T02:26:35.103Z,4.45
2019-01-12T02:27:35.123Z,4.44
2019-01-12T02:28:35.090Z,4.37
2019-01-12T02:29:35.085Z,4.41
2019-01-12T02:30:35.075Z,4.40
2019-01-12T02:31:35.050Z,4.47
2019-01-12T02:32:35.116Z,4.36
2019-01-12T02:33:35.040Z,4.33
2019-01-12T02:34:35.030Z,4.40
2019-01-12T02:35:35.038Z,4.42
2019-01-12T02:36:35.004Z,4.40
2019-01-12T02:37:34.992Z,4.42
2019-01-12T02:38:34.981Z,4.32
2019-01-12T02:39:34.967Z,4.34
2019-01-12T02:40:34.968Z,4.26
2019-01-12T02:41:34.942Z,4.41
2019-01-12T02:42:34.931Z,4.44
2019-01-12T02:43:34.923Z,4.33
2019-01-12T02:44:34.935Z,4.33
2019-01-12T02:45:34.914Z,4.37
2019-01-12T02:46:34.895Z,4.30
2019-01-12T02:47:34.904Z,4.33
2019-01-12T02:48:34.872Z,4.34
2019-01-12T02:49:34.858Z,4.41
2019-01-12T02:50:34.851Z,4.29
2019-01-12T02:51:34.841Z,4.37
2019-01-12T02:52:34.847Z,4.32
2019-01-12T02:53:34.817Z,4.33
2019-01-12T02:54:34.813Z,4.37
2019-01-12T02:55:34.795Z,4.37
2019-01-12T02:56:34.790Z,4.32
2019-01-12T02:57:34.783Z,4.44
2019-01-12T02:58:34.762Z,4.37
2019-01-12T02:59:34.754Z,4.33
2019-01-12T03:00:34.740Z,4.36
2019-01-12T03:01:34.740Z,4.41
2019-01-12T03:02:34.728Z,4.27
2019-01-12T03:03:34.725Z,4.29
2019-01-12T03:04:34.720Z,4.33
2019-01-12T03:05:34.686Z,4.36
2019-01-12T03:06:34.686Z,4.33
2019-01-12T03:07:34.660Z,4.27
2019-01-12T03:08:34.680Z,4.47
2019-01-12T03:09:34.660Z,4.36
2019-01-12T03:10:34.639Z,4.29
2019-01-12T03:11:34.640Z,4.32
2019-01-12T03:12:34.610Z,4.36
2019-01-12T03:13:34.601Z,4.33
2019-01-12T03:14:34.595Z,4.33
2019-01-12T03:15:34.585Z,4.33
2019-01-12T03:16:34.579Z,4.29
2019-01-12T03:17:34.568Z,4.34
2019-01-12T03:18:34.545Z,4.30
2019-01-12T03:19:34.556Z,4.30
2019-01-12T03:20:34.552Z,4.36
2019-01-12T03:21:34.523Z,4.33
2019-01-12T03:22:34.532Z,4.36
2019-01-12T03:23:34.498Z,4.44
2019-01-12T03:24:34.505Z,4.44
2019-01-12T03:25:34.498Z,4.26
2019-01-12T03:26:34.472Z,4.27
2019-01-12T03:27:34.454Z,4.32
2019-01-12T03:28:34.464Z,4.36
2019-01-12T03:29:34.439Z,4.29
2019-01-12T03:30:36.574Z,4.29
2019-01-12T03:31:34.462Z,4.26
2019-01-12T03:32:34.405Z,4.33
2019-01-12T03:33:34.385Z,4.30
2019-01-12T03:34:34.383Z,4.29
2019-01-12T03:35:34.365Z,4.32
2019-01-12T03:36:34.366Z,4.30
2019-01-12T03:37:34.349Z,4.27
2019-01-12T03:38:34.358Z,4.33
2019-01-12T03:39:34.326Z,4.30
2019-01-12T03:40:34.320Z,4.27
2019-01-12T03:41:34.308Z,4.30
2019-01-12T03:42:34.297Z,4.32
2019-01-12T03:43:34.275Z,4.34
2019-01-12T03:44:34.296Z,4.30
2019-01-12T03:45:34.257Z,4.40
2019-01-12T03:46:34.261Z,4.29
2019-01-12T03:47:34.244Z,4.30
2019-01-12T03:48:34.230Z,4.40
2019-01-12T03:49:34.208Z,4.32
2019-01-12T03:50:34.195Z,4.36
2019-01-12T03:51:34.202Z,4.27
2019-01-12T03:52:34.175Z,4.27
2019-01-12T03:53:34.180Z,4.26
2019-01-12T03:54:34.165Z,4.30
2019-01-12T03:55:34.153Z,4.41
2019-01-12T03:56:34.135Z,4.44
2019-01-12T03:57:34.133Z,4.33
2019-01-12T03:58:34.121Z,4.30
2019-01-12T03:59:34.103Z,4.33
2019-01-12T04:00:34.105Z,4.41
2019-01-12T04:01:34.082Z,4.41
2019-01-12T04:02:34.079Z,4.32
2019-01-12T04:03:34.084Z,4.30
2019-01-12T04:04:34.054Z,4.32
2019-01-12T04:05:34.060Z,4.44
2019-01-12T04:06:34.028Z,4.32
2019-01-12T04:07:34.020Z,4.45
2019-01-12T04:08:34.014Z,4.33
2019-01-12T04:09:33.992Z,4.40
2019-01-12T04:10:33.989Z,4.40
2019-01-12T04:11:33.994Z,4.27
2019-01-12T04:12:33.975Z,4.45
2019-01-12T04:13:33.947Z,4.32
2019-01-12T04:14:33.965Z,4.45
2019-01-12T04:15:33.928Z,4.33
2019-01-12T04:16:33.932Z,4.40
2019-01-12T04:17:33.923Z,4.40
2019-01-12T04:18:33.908Z,4.34
2019-01-12T04:19:33.894Z,4.33
2019-01-12T04:20:33.939Z,4.29
2019-01-12T04:21:33.878Z,4.30
2019-01-12T04:22:33.950Z,4.41
2019-01-12T04:23:33.853Z,4.32
2019-01-12T04:24:33.850Z,4.36
2019-01-12T04:25:34.518Z,4.44
2019-01-12T04:26:33.818Z,4.30
2019-01-12T04:27:33.806Z,4.37
2019-01-12T04:28:33.799Z,4.30
2019-01-12T04:29:33.780Z,4.32
2019-01-12T04:30:33.762Z,4.32
2019-01-12T04:31:33.763Z,4.30
2019-01-12T04:32:33.759Z,4.37
2019-01-12T04:33:33.744Z,4.37
2019-01-12T04:34:33.743Z,4.30
2019-01-12T04:35:33.719Z,4.40
2019-01-12T04:36:33.708Z,4.29
2019-01-12T04:37:33.704Z,4.32
2019-01-12T04:38:33.683Z,4.32
2019-01-12T04:39:33.675Z,4.27
2019-01-12T04:40:33.690Z,4.33
2019-01-12T04:41:33.654Z,4.30
2019-01-12T04:42:33.641Z,4.33
2019-01-12T04:43:33.638Z,4.51
2019-01-12T04:44:33.634Z,4.40
2019-01-12T04:45:33.618Z,4.33
2019-01-12T04:46:33.609Z,4.47
2019-01-12T04:47:33.590Z,4.45
2019-01-12T04:48:33.576Z,4.34
2019-01-12T04:49:33.569Z,4.44
2019-01-12T04:50:33.569Z,4.36
2019-01-12T04:51:33.544Z,4.41
2019-01-12T04:52:33.546Z,4.34
2019-01-12T04:53:33.524Z,4.34
2019-01-12T04:54:33.516Z,4.34
2019-01-12T04:55:41.067Z,4.37
2019-01-12T04:56:34.503Z,4.44
2019-01-12T04:57:33.480Z,4.41
2019-01-12T04:58:33.478Z,4.34
2019-01-12T04:59:33.467Z,4.36
2019-01-12T05:00:33.455Z,4.51
2019-01-12T05:01:33.448Z,4.47
2019-01-12T05:02:33.474Z,4.51
2019-01-12T05:03:33.442Z,4.50
2019-01-12T05:04:33.420Z,4.48
2019-01-12T05:05:33.406Z,4.52
2019-01-12T05:06:33.396Z,4.52
2019-01-12T05:07:33.392Z,4.54
2019-01-12T05:08:33.378Z,4.54
2019-01-12T05:09:33.353Z,4.55
2019-01-12T05:10:33.341Z,4.48
2019-01-12T05:11:33.330Z,4.51
2019-01-12T05:12:33.401Z,4.48
2019-01-12T05:13:33.313Z,4.52
2019-01-12T05:14:33.304Z,4.55
2019-01-12T05:15:33.292Z,4.48
2019-01-12T05:16:33.281Z,4.50
2019-01-12T05:17:33.281Z,4.52
2019-01-12T05:18:33.269Z,4.58
2019-01-12T05:19:33.266Z,4.51
2019-01-12T05:20:33.673Z,4.52
2019-01-12T05:21:33.229Z,4.60
2019-01-12T05:22:33.212Z,4.51
2019-01-12T05:23:33.204Z,4.59
2019-01-12T05:24:33.194Z,4.47
2019-01-12T05:25:33.193Z,4.52
2019-01-12T05:26:33.177Z,4.55
2019-01-12T05:27:33.160Z,4.62
2019-01-12T05:28:33.149Z,4.54
2019-01-12T05:29:33.144Z,4.48
2019-01-12T05:30:33.137Z,4.55
2019-01-12T05:31:33.117Z,4.52
2019-01-12T05:32:33.113Z,4.55
2019-01-12T05:33:33.104Z,4.50
2019-01-12T05:34:33.100Z,4.50
2019-01-12T05:35:33.086Z,4.52
2019-01-12T05:36:33.067Z,4.47
2019-01-12T05:37:33.049Z,4.52
2019-01-12T05:38:33.034Z,4.48
2019-01-12T05:39:33.031Z,4.59
2019-01-12T05:40:33.017Z,4.52
2019-01-12T05:41:33.024Z,4.55
2019-01-12T05:42:33.006Z,4.60
2019-01-12T05:43:32.980Z,4.55
2019-01-12T05:44:32.978Z,4.54
2019-01-12T05:45:32.963Z,4.54
2019-01-12T05:46:32.957Z,4.54
2019-01-12T05:47:32.946Z,4.58
2019-01-12T05:48:32.957Z,4.60
2019-01-12T05:49:32.923Z,4.63
2019-01-12T05:50:32.905Z,4.58
2019-01-12T05:51:32.932Z,4.63
2019-01-12T05:52:32.899Z,4.60
2019-01-12T05:53:32.906Z,4.60
2019-01-12T05:54:32.866Z,4.59
2019-01-12T05:55:32.855Z,4.65
2019-01-12T05:56:32.846Z,4.62
2019-01-12T05:57:32.833Z,4.55
2019-01-12T05:58:32.832Z,4.62
2019-01-12T05:59:32.837Z,4.60
2019-01-12T06:00:32.808Z,4.62
2019-01-12T06:01:32.789Z,4.60
2019-01-12T06:02:32.794Z,4.63
2019-01-12T06:03:32.782Z,4.60
2019-01-12T06:04:32.761Z,4.66
2019-01-12T06:05:32.744Z,4.59
2019-01-12T06:06:32.752Z,4.66
2019-01-12T06:07:32.726Z,4.62
2019-01-12T06:08:32.714Z,4.66
2019-01-12T06:09:32.718Z,4.62
2019-01-12T06:10:32.696Z,4.55
2019-01-12T06:11:32.679Z,4.62
2019-01-12T06:12:32.680Z,4.63
2019-01-12T06:13:32.658Z,4.63
2019-01-12T06:14:32.652Z,4.60
2019-01-12T06:15:32.650Z,4.65
2019-01-12T06:16:32.623Z,4.58
2019-01-12T06:17:32.614Z,4.55
2019-01-12T06:18:32.609Z,4.55
2019-01-12T06:19:32.606Z,4.58
2019-01-12T06:20:32.596Z,4.58
2019-01-12T06:21:32.588Z,4.58
2019-01-12T06:22:32.586Z,4.63
2019-01-12T06:23:32.552Z,4.62
2019-01-12T06:24:32.555Z,4.59
2019-01-12T06:25:32.535Z,4.67
2019-01-12T06:26:32.526Z,4.62
2019-01-12T06:27:32.518Z,4.62
2019-01-12T06:28:32.501Z,4.66
2019-01-12T06:29:32.489Z,4.60
2019-01-12T06:30:32.472Z,4.63
2019-01-12T06:31:32.463Z,4.60
2019-01-12T06:32:32.456Z,4.59
2019-01-12T06:33:32.443Z,4.62
2019-01-12T06:34:32.430Z,4.59
2019-01-12T06:35:32.435Z,4.59
2019-01-12T06:36:32.437Z,4.60
2019-01-12T06:37:32.400Z,4.65
2019-01-12T06:38:32.410Z,4.59
2019-01-12T06:39:32.450Z,4.63
2019-01-12T06:40:32.368Z,4.62
2019-01-12T06:41:32.377Z,4.62
2019-01-12T06:42:32.362Z,4.63
2019-01-12T06:43:32.369Z,4.62
2019-01-12T06:44:32.353Z,4.62
2019-01-12T06:45:32.310Z,4.58
2019-01-12T06:46:32.296Z,4.59
2019-01-12T06:47:32.346Z,4.58
2019-01-12T06:48:32.297Z,4.55
2019-01-12T06:49:32.270Z,4.52
2019-01-12T06:50:32.254Z,4.59
2019-01-12T06:51:32.248Z,4.60
2019-01-12T06:52:32.234Z,4.58
2019-01-12T06:53:32.233Z,4.60
2019-01-12T06:54:32.226Z,4.63
2019-01-12T06:55:32.212Z,4.55
2019-01-12T06:56:32.196Z,4.66
2019-01-12T06:57:32.186Z,4.60
2019-01-12T06:58:32.214Z,4.60
2019-01-12T06:59:32.180Z,4.59
2019-01-12T07:00:32.172Z,4.63
2019-01-12T07:01:32.262Z,4.60
2019-01-12T07:02:32.269Z,4.60
2019-01-12T07:03:32.141Z,4.60
2019-01-12T07:04:32.212Z,4.63
2019-01-12T07:05:32.114Z,4.65
2019-01-12T07:06:32.096Z,4.62
2019-01-12T07:07:32.088Z,4.60
2019-01-12T07:08:32.094Z,4.55
2019-01-12T07:09:32.066Z,4.50
2019-01-12T07:10:32.058Z,4.54
2019-01-12T07:11:32.042Z,4.58
2019-01-12T07:12:32.028Z,4.54
2019-01-12T07:13:32.038Z,4.65
2019-01-12T07:14:32.088Z,4.59
2019-01-12T07:15:31.991Z,4.51
2019-01-12T07:16:31.987Z,4.54
2019-01-12T07:17:31.973Z,4.59
2019-01-12T07:18:31.991Z,4.60
2019-01-12T07:19:31.960Z,4.66
2019-01-12T07:20:31.931Z,4.60
2019-01-12T07:21:31.923Z,4.58
2019-01-12T07:22:31.910Z,4.62
2019-01-12T07:23:31.914Z,4.60
2019-01-12T07:24:31.892Z,4.60
2019-01-12T07:25:31.879Z,4.60
2019-01-12T07:26:31.864Z,4.60
2019-01-12T07:27:31.870Z,4.69
2019-01-12T07:28:31.850Z,4.63
2019-01-12T07:29:31.828Z,4.66
2019-01-12T07:30:31.826Z,4.67
2019-01-12T07:31:31.826Z,4.60
2019-01-12T07:32:31.814Z,4.69
2019-01-12T07:33:31.792Z,4.58
2019-01-12T07:34:31.853Z,4.63
2019-01-12T07:35:31.768Z,4.70
2019-01-12T07:36:31.764Z,4.65
2019-01-12T07:37:31.757Z,4.63
2019-01-12T07:38:31.743Z,4.58
2019-01-12T07:39:31.740Z,4.66
2019-01-12T07:40:31.735Z,4.60
2019-01-12T07:41:31.708Z,4.66
2019-01-12T07:42:31.701Z,4.65
2019-01-12T07:43:31.688Z,4.66
2019-01-12T07:44:31.671Z,4.65
2019-01-12T07:45:31.664Z,4.62
2019-01-12T07:46:31.715Z,4.59
2019-01-12T07:47:31.641Z,4.58
2019-01-12T07:48:31.643Z,4.66
2019-01-12T07:49:31.620Z,4.60
2019-01-12T07:50:31.624Z,4.65
2019-01-12T07:51:31.609Z,4.60
2019-01-12T07:52:31.602Z,4.58
2019-01-12T07:53:31.587Z,4.58
2019-01-12T07:54:31.575Z,4.54
2019-01-12T07:55:31.553Z,4.55
2019-01-12T07:56:31.555Z,4.65
2019-01-12T07:57:31.534Z,4.54
2019-01-12T07:58:31.548Z,4.59
2019-01-12T07:59:31.523Z,4.69
2019-01-12T08:00:31.535Z,4.78
2019-01-12T08:01:31.508Z,4.84
2019-01-12T08:02:31.495Z,4.91
2019-01-12T08:03:31.500Z,4.94
2019-01-12T08:04:31.470Z,4.91
2019-01-12T08:05:31.458Z,4.99
2019-01-12T08:06:31.474Z,4.99
2019-01-12T08:07:31.451Z,4.94
2019-01-12T08:08:31.415Z,4.97
2019-01-12T08:09:31.424Z,4.99
2019-01-12T08:10:31.393Z,5.03
2019-01-12T08:11:31.406Z,4.94
2019-01-12T08:12:31.375Z,5.06
2019-01-12T08:13:31.400Z,5.04
2019-01-12T08:14:31.366Z,5.00
2019-01-12T08:15:31.344Z,5.06
2019-01-12T08:16:31.334Z,5.13
2019-01-12T08:17:31.340Z,5.18
2019-01-12T08:18:31.317Z,5.17
2019-01-12T08:19:31.314Z,5.22
2019-01-12T08:20:31.337Z,5.24
2019-01-12T08:21:31.287Z,5.18
2019-01-12T08:22:31.345Z,5.21
2019-01-12T08:23:31.282Z,5.17
2019-01-12T08:24:31.268Z,5.15
2019-01-12T08:25:31.284Z,5.24
2019-01-12T08:26:31.488Z,5.18
2019-01-12T08:27:31.247Z,5.13
2019-01-12T08:28:31.210Z,5.17
2019-01-12T08:29:31.210Z,5.17
2019-01-12T08:30:31.190Z,5.18
2019-01-12T08:31:31.191Z,5.22
2019-01-12T08:32:31.166Z,5.09
2019-01-12T08:33:31.163Z,5.10
2019-01-12T08:34:31.132Z,5.18
2019-01-12T08:35:31.144Z,5.07
2019-01-12T08:36:31.147Z,5.15
2019-01-12T08:37:31.158Z,5.22
2019-01-12T08:38:31.084Z,5.15
2019-01-12T08:39:31.084Z,5.22
2019-01-12T08:40:31.093Z,5.12
2019-01-12T08:41:31.054Z,5.03
2019-01-12T08:42:31.044Z,4.99
2019-01-12T08:43:31.042Z,5.06
2019-01-12T08:44:31.019Z,4.96
2019-01-12T08:45:31.008Z,5.00
2019-01-12T08:46:30.996Z,4.94
2019-01-12T08:47:30.992Z,4.97
2019-01-12T08:48:30.978Z,4.89
2019-01-12T08:49:30.970Z,4.96
2019-01-12T08:50:30.955Z,4.88
2019-01-12T08:51:30.942Z,4.88
2019-01-12T08:52:30.935Z,4.89
2019-01-12T08:53:30.933Z,4.88
2019-01-12T08:54:30.911Z,4.86
2019-01-12T08:55:30.907Z,4.86
2019-01-12T08:56:30.891Z,4.82
2019-01-12T08:57:30.879Z,4.84
2019-01-12T08:58:30.873Z,4.75
2019-01-12T08:59:30.867Z,4.80
2019-01-12T09:00:30.855Z,4.73
2019-01-12T09:01:30.838Z,4.72
2019-01-12T09:02:30.835Z,4.80
2019-01-12T09:03:30.817Z,4.75
2019-01-12T09:04:30.820Z,4.77
2019-01-12T09:05:30.793Z,4.73
2019-01-12T09:06:30.787Z,4.78
2019-01-12T09:07:30.773Z,4.77
2019-01-12T09:08:30.760Z,4.73
2019-01-12T09:09:30.756Z,4.78
2019-01-12T09:10:30.748Z,4.80
2019-01-12T09:11:30.730Z,4.77
2019-01-12T09:12:30.720Z,4.84
2019-01-12T09:13:30.711Z,4.77
2019-01-12T09:14:30.716Z,4.78
2019-01-12T09:15:30.992Z,4.86
2019-01-12T09:16:30.687Z,4.85
2019-01-12T09:17:30.668Z,4.84
2019-01-12T09:18:30.675Z,4.88
2019-01-12T09:19:30.644Z,4.85
2019-01-12T09:20:30.641Z,4.85
2019-01-12T09:21:30.627Z,4.97
2019-01-12T09:22:30.606Z,4.94
2019-01-12T09:23:30.601Z,4.92
2019-01-12T09:24:30.595Z,4.92
2019-01-12T09:25:30.575Z,4.92
2019-01-12T09:26:30.572Z,4.99
2019-01-12T09:27:30.567Z,5.04
2019-01-12T09:28:30.542Z,4.97
2019-01-12T09:29:30.547Z,5.03
2019-01-12T09:30:30.538Z,5.02
2019-01-12T09:31:30.539Z,5.04
2019-01-12T09:32:30.507Z,5.18
2019-01-12T09:33:30.500Z,5.18
2019-01-12T09:34:30.483Z,5.21
2019-01-12T09:35:30.480Z,5.20
2019-01-12T09:36:31.104Z,5.18
2019-01-12T09:37:30.497Z,5.20
2019-01-12T09:38:30.461Z,5.13
2019-01-12T09:39:30.514Z,5.18
2019-01-12T09:40:30.455Z,5.15
2019-01-12T09:41:30.458Z,5.18
2019-01-12T09:42:30.391Z,5.15
2019-01-12T09:43:30.386Z,5.20
2019-01-12T09:44:30.377Z,5.20
2019-01-12T09:45:30.364Z,5.21
2019-01-12T09:46:30.350Z,5.20
2019-01-12T09:47:30.343Z,5.24
2019-01-12T09:48:30.412Z,5.20
2019-01-12T09:49:30.327Z,5.24
2019-01-12T09:50:30.309Z,5.35
2019-01-12T09:51:30.310Z,5.36
2019-01-12T09:52:30.291Z,5.45
2019-01-12T09:53:30.283Z,5.42
2019-01-12T09:54:30.264Z,5.51
2019-01-12T09:55:30.268Z,5.51
2019-01-12T09:56:30.245Z,5.63
2019-01-12T09:57:30.241Z,5.42
2019-01-12T09:58:30.223Z,5.60
2019-01-12T09:59:30.209Z,5.58
2019-01-12T10:00:30.202Z,5.68
2019-01-12T10:01:30.193Z,5.65
2019-01-12T10:02:30.191Z,5.65
2019-01-12T10:03:30.172Z,5.74
2019-01-12T10:04:30.161Z,5.63
2019-01-12T10:05:30.164Z,5.65
2019-01-12T10:06:30.141Z,5.58
2019-01-12T10:07:30.132Z,5.68
2019-01-12T10:08:30.117Z,5.65
2019-01-12T10:09:30.109Z,5.61
2019-01-12T10:10:30.098Z,5.61
2019-01-12T10:11:30.087Z,5.78
2019-01-12T10:12:30.080Z,5.74
2019-01-12T10:13:30.065Z,5.79
2019-01-12T10:14:30.052Z,5.71
2019-01-12T10:15:30.040Z,5.72
2019-01-12T10:16:30.025Z,5.81
2019-01-12T10:17:30.015Z,5.79
2019-01-12T10:18:30.009Z,5.72
2019-01-12T10:19:29.998Z,5.72
2019-01-12T10:20:29.995Z,5.79
2019-01-12T10:21:29.975Z,5.79
2019-01-12T10:22:29.977Z,5.79
2019-01-12T10:23:29.959Z,5.79
2019-01-12T10:24:29.953Z,5.79
2019-01-12T10:25:29.937Z,5.72
2019-01-12T10:26:29.929Z,5.76
2019-01-12T10:27:29.913Z,5.78
2019-01-12T10:28:29.901Z,5.81
2019-01-12T10:29:29.896Z,5.76
2019-01-12T10:30:29.898Z,5.79
2019-01-12T10:31:29.869Z,5.74
2019-01-12T10:32:29.876Z,5.78
2019-01-12T10:33:29.848Z,5.71
2019-01-12T10:34:29.841Z,5.65
2019-01-12T10:35:29.841Z,5.74
2019-01-12T10:36:29.818Z,5.79
2019-01-12T10:37:29.801Z,5.74
2019-01-12T10:38:29.797Z,5.65
2019-01-12T10:39:29.787Z,5.79
2019-01-12T10:40:29.777Z,5.71
2019-01-12T10:41:29.771Z,5.71
2019-01-12T10:42:29.759Z,5.79
2019-01-12T10:43:29.745Z,5.79
2019-01-12T10:44:29.735Z,5.76
2019-01-12T10:45:29.727Z,5.67
2019-01-12T10:46:29.715Z,5.75
2019-01-12T10:47:29.707Z,5.76
2019-01-12T10:48:29.775Z,5.79
2019-01-12T10:49:29.680Z,5.82
2019-01-12T10:50:29.672Z,5.86
2019-01-12T10:51:29.710Z,5.82
2019-01-12T10:52:29.687Z,5.83
2019-01-12T10:53:29.694Z,5.82
2019-01-12T10:54:29.842Z,5.75
2019-01-12T10:55:29.773Z,5.75
2019-01-12T10:56:29.683Z,5.79
2019-01-12T10:58:01.641Z,5.72
2019-01-12T10:59:00.947Z,5.76
2019-01-12T11:00:32.515Z,5.79
2019-01-12T11:01:32.434Z,5.82
2019-01-12T11:03:03.110Z,5.74
2019-01-12T11:04:03.085Z,5.76
2019-01-12T11:05:33.765Z,5.83
2019-01-12T11:06:33.757Z,5.83
2019-01-12T11:07:33.741Z,5.89
2019-01-12T11:08:33.731Z,5.83
2019-01-12T11:09:33.744Z,5.75
2019-01-12T11:10:33.703Z,5.82
2019-01-12T11:11:33.690Z,5.78
2019-01-12T11:12:33.682Z,5.78
2019-01-12T11:13:33.683Z,5.81
2019-01-12T11:14:33.660Z,5.81
2019-01-12T11:15:33.665Z,5.81
2019-01-12T11:16:33.679Z,5.86
2019-01-12T11:17:33.625Z,5.79
2019-01-12T11:18:33.625Z,5.86
2019-01-12T11:19:33.614Z,5.81
2019-01-12T11:20:33.598Z,5.86
2019-01-12T11:21:33.614Z,5.93
2019-01-12T11:22:33.598Z,5.86
2019-01-12T11:23:33.578Z,5.94
2019-01-12T11:24:33.562Z,5.96
2019-01-12T11:25:33.541Z,5.97
2019-01-12T11:26:33.557Z,6.09
2019-01-12T11:27:33.522Z,6.11
2019-01-12T11:28:33.524Z,6.17
2019-01-12T11:29:33.509Z,6.11
2019-01-12T11:30:33.508Z,6.06
2019-01-12T11:31:33.504Z,6.17
2019-01-12T11:32:33.471Z,6.11
2019-01-12T11:33:33.454Z,6.19
2019-01-12T11:34:33.606Z,6.25
2019-01-12T11:35:33.439Z,6.09
2019-01-12T11:36:33.431Z,6.11
2019-01-12T11:37:33.424Z,6.08
2019-01-12T11:38:33.406Z,6.12
2019-01-12T11:39:33.417Z,6.03
2019-01-12T11:40:33.426Z,6.09
2019-01-12T11:41:33.380Z,6.03
2019-01-12T11:42:33.360Z,5.96
2019-01-12T11:43:33.356Z,5.91
2019-01-12T11:44:33.343Z,5.90
2019-01-12T11:45:33.331Z,5.90
2019-01-12T11:46:33.332Z,5.83
2019-01-12T11:47:33.329Z,5.91
2019-01-12T11:48:33.297Z,5.86
2019-01-12T11:49:33.288Z,5.86
2019-01-12T11:50:33.301Z,5.83
2019-01-12T11:51:33.322Z,5.76
2019-01-12T11:52:33.286Z,5.75
2019-01-12T11:53:33.296Z,5.79
2019-01-12T11:54:33.232Z,5.75
2019-01-12T11:55:33.218Z,5.78
2019-01-12T11:56:33.217Z,5.74
2019-01-12T11:57:33.209Z,5.61
2019-01-12T11:58:33.211Z,5.74
2019-01-12T11:59:33.188Z,5.65
2019-01-12T12:00:33.225Z,5.63
2019-01-12T12:01:33.155Z,5.63
2019-01-12T12:02:37.683Z,5.67
2019-01-12T12:03:33.137Z,5.78
2019-01-12T12:04:33.290Z,5.76
2019-01-12T12:05:33.118Z,5.78
2019-01-12T12:06:33.102Z,5.76
2019-01-12T12:07:33.088Z,5.79
2019-01-12T12:08:33.077Z,5.83
2019-01-12T12:09:33.074Z,5.83
2019-01-12T12:10:33.055Z,5.90
2019-01-12T12:11:33.058Z,5.82
2019-01-12T12:12:33.036Z,5.86
2019-01-12T12:13:33.022Z,5.86
2019-01-12T12:14:33.020Z,5.90
2019-01-12T12:15:33.008Z,5.86
2019-01-12T12:16:32.995Z,5.82
2019-01-12T12:17:32.985Z,5.82
2019-01-12T12:18:32.976Z,5.83
2019-01-12T12:19:32.957Z,5.86
2019-01-12T12:20:32.957Z,5.82
2019-01-12T12:21:32.935Z,5.76
2019-01-12T12:22:32.938Z,5.82
2019-01-12T12:23:32.924Z,5.90
2019-01-12T12:24:32.941Z,5.81
2019-01-12T12:25:32.905Z,5.91
2019-01-12T12:26:32.898Z,5.81
2019-01-12T12:27:32.881Z,5.76
2019-01-12T12:28:32.881Z,5.81
2019-01-12T12:29:32.859Z,5.78
2019-01-12T12:30:32.846Z,5.78
2019-01-12T12:31:32.842Z,5.83
2019-01-12T12:32:32.839Z,5.86
2019-01-12T12:33:32.824Z,5.89
2019-01-12T12:34:32.808Z,5.76
2019-01-12T12:35:37.661Z,5.89
2019-01-12T12:36:33.795Z,5.79
2019-01-12T12:37:32.784Z,5.81
2019-01-12T12:38:32.783Z,5.86
2019-01-12T12:39:32.792Z,5.86
2019-01-12T12:40:32.738Z,5.85
2019-01-12T12:41:32.734Z,5.83
2019-01-12T12:42:32.724Z,5.94
2019-01-12T12:43:32.721Z,5.99
2019-01-12T12:44:32.734Z,5.97
2019-01-12T12:45:32.693Z,5.99
2019-01-12T12:46:32.677Z,6.06
2019-01-12T12:47:32.660Z,6.01
2019-01-12T12:48:32.696Z,6.08
2019-01-12T12:49:32.654Z,6.08
2019-01-12T12:50:32.654Z,6.12
2019-01-12T12:51:32.666Z,6.08
2019-01-12T12:52:32.646Z,6.00
2019-01-12T12:53:32.600Z,6.04
2019-01-12T12:54:32.602Z,6.12
2019-01-12T12:55:32.588Z,6.12
2019-01-12T12:56:32.596Z,6.03
2019-01-12T12:57:33.032Z,6.08
2019-01-12T12:58:32.670Z,6.06
2019-01-12T12:59:32.670Z,6.01
2019-01-12T13:01:03.481Z,6.06
2019-01-12T13:02:03.183Z,6.09
2019-01-12T13:03:33.932Z,6.08
2019-01-12T13:04:33.918Z,5.99
2019-01-12T13:06:04.567Z,5.97
2019-01-12T13:07:04.625Z,6.01
2019-01-12T13:08:04.539Z,5.94
2019-01-12T13:09:04.601Z,6.00
2019-01-12T13:10:04.517Z,5.91
2019-01-12T13:11:04.561Z,5.97
2019-01-12T13:12:04.496Z,6.00
2019-01-12T13:13:04.631Z,5.94
2019-01-12T13:14:04.508Z,5.90
2019-01-12T13:15:35.163Z,5.90
2019-01-12T13:16:35.159Z,5.86
2019-01-12T13:18:05.802Z,5.86
2019-01-12T13:19:05.785Z,5.99
2019-01-12T13:20:36.480Z,6.00
2019-01-12T13:21:36.495Z,5.97
2019-01-12T13:23:07.347Z,6.08
2019-01-12T13:24:07.152Z,6.01
2019-01-12T13:25:37.852Z,6.06